Time;durP1;ratioP1;P1;durP2;ratioP2;P2;SDS_P1;SDS_P2;PMS_P1;PMS_P2;Temp;Humidity;BMP_temperature;BMP_pressure;BME280_temperature;BME280_humidity;BME280_pressure;Samples;Min_cycle;Max_cycle;Signal;HPM_P1;HPM_P2
2023/04/19 00:00:37;;;;;;;14.37;12.60;;;;;;;9.07;83.30;102461.81;5246388;28;20033;-65
2023/04/19 00:03:09;;;;;;;13.98;12.57;;;;;;;9.08;83.24;102457.47;5244434;28;20125;-65
2023/04/19 00:05:41;;;;;;;13.93;12.52;;;;;;;9.19;82.51;102457.69;5245678;28;20107;-66
2023/04/19 00:08:12;;;;;;;16.23;13.40;;;;;;;9.28;82.12;102450.06;5245595;28;20029;-65
2023/04/19 00:10:44;;;;;;;18.00;13.10;;;;;;;9.24;82.21;102451.75;5245256;28;20284;-66
2023/04/19 00:13:15;;;;;;;14.63;13.10;;;;;;;9.24;82.63;102443.03;5245338;28;20532;-65
2023/04/19 00:15:46;;;;;;;16.47;14.07;;;;;;;9.27;82.30;102446.59;5245865;28;20029;-65
2023/04/19 00:18:18;;;;;;;14.57;12.60;;;;;;;9.31;81.79;102443.19;5245470;28;20477;-65
2023/04/19 00:20:50;;;;;;;14.90;13.37;;;;;;;9.34;81.60;102438.88;5244107;28;20025;-65
2023/04/19 00:23:21;;;;;;;14.43;12.95;;;;;;;9.40;81.56;102444.22;5245308;28;20029;-65
2023/04/19 00:25:52;;;;;;;14.70;13.27;;;;;;;9.41;81.21;102444.25;5245335;28;20104;-65
2023/04/19 00:28:24;;;;;;;14.13;12.63;;;;;;;9.42;81.00;102446.00;5243787;28;20087;-65
2023/04/19 00:30:56;;;;;;;16.52;13.32;;;;;;;9.42;80.85;102448.63;5245295;28;20108;-65
2023/04/19 00:33:27;;;;;;;15.40;13.43;;;;;;;9.41;80.96;102441.63;5245265;28;20112;-65
2023/04/19 00:35:59;;;;;;;16.80;12.87;;;;;;;9.43;81.15;102445.13;5245728;28;20041;-64
2023/04/19 00:38:30;;;;;;;16.03;13.20;;;;;;;9.54;80.16;102442.75;5244961;28;20037;-65
2023/04/19 00:41:01;;;;;;;17.23;13.43;;;;;;;9.49;80.98;102441.78;5244422;28;20037;-64
2023/04/19 00:43:33;;;;;;;15.63;14.07;;;;;;;9.45;81.28;102447.78;5245319;28;20037;-65
2023/04/19 00:46:05;;;;;;;14.57;12.70;;;;;;;9.51;80.78;102441.81;5243709;28;20544;-66
2023/04/19 00:48:36;;;;;;;15.20;13.70;;;;;;;9.48;81.00;102442.63;5244974;28;20040;-65
2023/04/19 00:51:09;;;;;;;14.30;12.73;;;;;;;9.47;81.23;102438.28;5245186;28;20026;-65
2023/04/19 00:53:42;;;;;;;15.98;13.50;;;;;;;9.49;81.28;102433.97;5245666;28;20034;-65
2023/04/19 00:56:14;;;;;;;15.73;14.02;;;;;;;9.53;80.67;102432.31;5243536;28;20037;-64
2023/04/19 00:58:46;;;;;;;14.45;12.98;;;;;;;9.54;80.66;102432.34;5244703;28;20041;-65
2023/04/19 01:01:18;;;;;;;14.85;13.45;;;;;;;9.52;80.73;102439.25;5243823;28;20507;-65
2023/04/19 01:03:49;;;;;;;15.23;13.73;;;;;;;9.59;80.46;102433.28;5244647;28;20112;-65
2023/04/19 01:06:21;;;;;;;15.77;13.67;;;;;;;9.63;80.30;102426.44;5245097;28;20033;-65
2023/04/19 01:08:53;;;;;;;17.50;13.67;;;;;;;9.58;80.61;102423.75;5244428;28;20477;-65
2023/04/19 01:11:25;;;;;;;14.73;13.23;;;;;;;9.61;81.19;102430.72;5242895;28;20389;-65
2023/04/19 01:13:57;;;;;;;16.45;12.52;;;;;;;9.59;80.95;102427.22;5243412;28;20052;-64
2023/04/19 01:16:28;;;;;;;16.05;13.57;;;;;;;9.58;81.25;102434.16;5244891;28;20037;-64
2023/04/19 01:19:00;;;;;;;15.60;13.43;;;;;;;9.59;81.17;102430.69;5244330;28;20078;-64
2023/04/19 01:21:31;;;;;;;16.50;13.97;;;;;;;9.58;81.26;102428.03;5244048;28;20489;-65
2023/04/19 01:24:03;;;;;;;14.83;13.33;;;;;;;9.61;81.15;102433.31;5244500;28;20433;-65
2023/04/19 01:26:34;;;;;;;18.27;14.07;;;;;;;9.59;81.68;102435.03;5244769;28;20061;-64
2023/04/19 01:29:06;;;;;;;16.27;13.57;;;;;;;9.57;81.70;102427.19;5244176;28;20033;-65
2023/04/19 01:31:37;;;;;;;17.53;14.37;;;;;;;9.58;82.21;102430.66;5243941;28;20053;-65
2023/04/19 01:34:08;;;;;;;15.37;13.70;;;;;;;9.59;81.89;102440.22;5244110;28;20033;-65
2023/04/19 01:36:40;;;;;;;15.03;13.43;;;;;;;9.57;82.02;102426.31;5244043;28;20033;-65
2023/04/19 01:39:11;;;;;;;16.00;12.93;;;;;;;9.55;82.55;102433.22;5242274;28;20107;-65
2023/04/19 01:41:42;;;;;;;16.10;13.87;;;;;;;9.57;82.29;102432.38;5243946;28;20113;-65
2023/04/19 01:44:14;;;;;;;16.30;13.53;;;;;;;9.56;82.67;102424.56;5243930;28;20068;-65
2023/04/19 01:46:45;;;;;;;16.50;13.03;;;;;;;9.55;82.74;102428.88;5243934;28;20350;-65
2023/04/19 01:49:17;;;;;;;14.77;13.13;;;;;;;9.57;83.19;102432.38;5243958;28;20036;-65
2023/04/19 01:51:48;;;;;;;17.50;13.23;;;;;;;9.57;83.30;102421.09;5243789;28;20030;-65
2023/04/19 01:54:19;;;;;;;19.20;13.77;;;;;;;9.54;83.73;102421.91;5243988;28;20139;-65
2023/04/19 01:56:51;;;;;;;22.07;14.53;;;;;;;9.54;83.71;102429.72;5244125;28;20080;-65
2023/04/19 01:59:22;;;;;;;15.93;13.90;;;;;;;9.54;84.01;102421.91;5243252;28;20117;-65
2023/04/19 02:01:53;;;;;;;16.40;14.53;;;;;;;9.54;84.37;102426.25;5243530;28;20083;-65
2023/04/19 02:04:25;;;;;;;14.80;13.20;;;;;;;9.54;84.04;102416.72;5243495;28;20040;-65
2023/04/19 02:06:56;;;;;;;17.47;14.73;;;;;;;9.53;84.42;102414.06;5243754;28;20037;-65
2023/04/19 02:09:28;;;;;;;16.97;13.30;;;;;;;9.59;84.23;102403.78;5243340;28;20025;-65
2023/04/19 02:11:59;;;;;;;15.67;13.97;;;;;;;9.55;84.78;102402.84;5243373;28;20030;-66
2023/04/19 02:14:31;;;;;;;18.60;15.00;;;;;;;9.55;85.05;102394.19;5242835;28;20114;-66
2023/04/19 02:17:02;;;;;;;16.50;13.77;;;;;;;9.60;84.75;102398.59;5241905;28;20044;-65
2023/04/19 02:19:34;;;;;;;16.30;14.33;;;;;;;9.61;85.05;102396.88;5243148;28;20068;-66
2023/04/19 02:22:05;;;;;;;19.37;14.10;;;;;;;9.59;85.26;102393.38;5242905;28;20042;-65
2023/04/19 02:24:36;;;;;;;16.00;14.33;;;;;;;9.60;85.75;102392.53;5243088;28;20455;-66
2023/04/19 02:27:08;;;;;;;15.87;14.17;;;;;;;9.59;85.98;102393.38;5242978;28;20484;-64
2023/04/19 02:29:39;;;;;;;15.50;13.90;;;;;;;9.63;85.67;102390.84;5242581;28;20033;-64
2023/04/19 02:32:11;;;;;;;16.50;14.43;;;;;;;9.63;85.74;102397.78;5242906;28;20150;-64
2023/04/19 02:34:42;;;;;;;19.67;14.73;;;;;;;9.71;85.46;102404.00;5241520;28;20065;-64
2023/04/19 02:37:14;;;;;;;17.90;13.30;;;;;;;9.68;86.02;102403.94;5241537;28;20384;-64
2023/04/19 02:39:45;;;;;;;15.63;13.77;;;;;;;9.68;85.76;102398.75;5242714;28;20389;-64
2023/04/19 02:42:17;;;;;;;16.93;14.70;;;;;;;9.72;85.71;102397.06;5242631;28;20037;-65
2023/04/19 02:44:48;;;;;;;15.90;13.50;;;;;;;9.75;85.69;102402.31;5242378;28;20029;-65
2023/04/19 02:47:19;;;;;;;17.03;14.33;;;;;;;9.71;85.97;102397.88;5242529;28;20465;-65
2023/04/19 02:49:51;;;;;;;16.03;13.90;;;;;;;9.72;86.25;102404.88;5241738;28;20026;-64
2023/04/19 02:52:22;;;;;;;16.37;13.67;;;;;;;9.71;86.05;102401.41;5243089;28;20030;-66
2023/04/19 02:54:54;;;;;;;16.37;14.53;;;;;;;9.73;86.14;102401.41;5242434;28;20029;-65
2023/04/19 02:57:25;;;;;;;19.87;15.33;;;;;;;9.70;86.46;102401.38;5242180;28;20038;-65
2023/04/19 02:59:57;;;;;;;16.50;14.13;;;;;;;9.71;86.56;102400.50;5241695;28;20037;-65
2023/04/19 03:02:29;;;;;;;15.90;13.77;;;;;;;9.65;86.89;102394.34;5242243;28;20056;-65
2023/04/19 03:05:00;;;;;;;16.93;13.63;;;;;;;9.68;86.89;102409.16;5242360;28;20037;-65
2023/04/19 03:07:31;;;;;;;18.07;14.27;;;;;;;9.67;87.10;102402.19;5240997;28;20036;-66
2023/04/19 03:10:03;;;;;;;16.17;13.67;;;;;;;9.66;87.04;102403.06;5242696;28;20533;-65
2023/04/19 03:12:34;;;;;;;17.43;13.83;;;;;;;9.62;87.52;102398.63;5241895;28;20040;-65
2023/04/19 03:15:07;;;;;;;17.43;14.17;;;;;;;9.60;87.53;102402.94;5241885;28;20436;-65
2023/04/19 03:17:38;;;;;;;14.70;13.20;;;;;;;9.61;87.62;102395.16;5208429;28;20461;-67
2023/04/19 03:20:10;;;;;;;17.67;13.60;;;;;;;9.57;88.04;102395.06;5242060;28;20033;-65
2023/04/19 03:22:42;;;;;;;16.50;13.35;;;;;;;9.53;88.73;102393.25;5242053;28;20430;-65
2023/04/19 03:25:13;;;;;;;16.77;13.90;;;;;;;9.51;88.75;102395.81;5240264;28;20116;-65
2023/04/19 03:27:46;;;;;;;15.67;13.27;;;;;;;9.49;88.87;102401.00;5242201;28;20075;-65
2023/04/19 03:30:18;;;;;;;15.13;13.02;;;;;;;9.46;89.84;102395.75;5241854;28;20045;-65
2023/04/19 03:32:51;;;;;;;15.37;12.87;;;;;;;9.45;89.81;102398.31;5242098;28;20034;-65
2023/04/19 03:35:25;;;;;;;16.60;14.30;;;;;;;9.43;90.02;102393.09;5241920;28;20034;-65
2023/04/19 03:37:56;;;;;;;15.35;13.35;;;;;;;9.45;90.14;102385.31;5241855;28;20065;-66
2023/04/19 03:40:29;;;;;;;16.10;12.83;;;;;;;9.43;90.29;102393.09;5242128;28;20053;-65
2023/04/19 03:43:01;;;;;;;17.92;14.38;;;;;;;9.42;89.78;102386.16;5242095;28;20029;-66
2023/04/19 03:45:32;;;;;;;17.47;12.70;;;;;;;9.39;90.37;102388.69;5241454;28;20037;-65
2023/04/19 03:48:04;;;;;;;16.40;13.07;;;;;;;9.35;90.60;102376.47;5240326;28;20379;-65
2023/04/19 03:50:35;;;;;;;19.63;13.17;;;;;;;9.35;90.22;102386.88;5241779;28;20473;-65
2023/04/19 03:53:06;;;;;;;14.80;13.20;;;;;;;9.36;90.40;102396.44;5240510;28;20493;-65
2023/04/19 03:55:38;;;;;;;16.37;12.53;;;;;;;9.37;90.03;102393.00;5241970;28;20057;-66
2023/04/19 03:58:09;;;;;;;19.03;12.87;;;;;;;9.39;89.70;102387.81;5241697;28;20099;-65
2023/04/19 04:00:41;;;;;;;16.70;12.57;;;;;;;9.37;90.00;102394.72;5241890;28;20040;-66
2023/04/19 04:03:12;;;;;;;14.00;12.07;;;;;;;9.37;90.11;102392.09;5241469;28;20037;-65
2023/04/19 04:05:44;;;;;;;14.17;12.70;;;;;;;9.34;90.46;102405.94;5241617;28;20025;-66
2023/04/19 04:08:15;;;;;;;16.90;12.63;;;;;;;9.36;89.74;102395.56;5241498;28;20036;-66
2023/04/19 04:10:47;;;;;;;12.47;11.17;;;;;;;9.35;89.99;102399.00;5241574;28;20026;-66
2023/04/19 04:13:18;;;;;;;17.00;12.50;;;;;;;9.30;90.34;102393.72;5241267;28;20076;-65
2023/04/19 04:15:49;;;;;;;16.77;12.10;;;;;;;9.25;90.30;102397.97;5241336;28;20038;-66
2023/04/19 04:18:22;;;;;;;16.67;12.40;;;;;;;9.22;90.68;102390.97;5240226;28;20041;-65
2023/04/19 04:20:54;;;;;;;13.43;11.68;;;;;;;9.18;90.90;102391.78;5241472;28;20033;-66
2023/04/19 04:23:25;;;;;;;15.13;11.77;;;;;;;9.16;90.97;102398.69;5241418;28;20108;-66
2023/04/19 04:26:01;;;;;;;15.90;12.53;;;;;;;9.08;91.41;102395.94;5241440;28;20114;-66
2023/04/19 04:28:32;;;;;;;16.02;12.55;;;;;;;9.02;91.82;102397.53;5240886;28;20034;-66
2023/04/19 04:31:04;;;;;;;15.03;11.10;;;;;;;8.99;91.82;102395.75;5241640;28;20365;-66
2023/04/19 04:33:36;;;;;;;15.25;12.35;;;;;;;8.97;91.52;102397.44;5241287;28;20025;-66
2023/04/19 04:36:10;;;;;;;15.63;12.07;;;;;;;8.92;91.72;102405.16;5242023;28;20461;-66
2023/04/19 04:38:42;;;;;;;15.90;11.43;;;;;;;8.88;91.87;102402.47;5245704;28;20043;-66
2023/04/19 04:41:15;;;;;;;16.48;11.68;;;;;;;8.85;91.98;102405.88;5245423;28;20099;-66
2023/04/19 04:43:50;;;;;;;13.88;11.02;;;;;;;8.85;91.77;102402.41;5244702;28;20133;-66
2023/04/19 04:46:21;;;;;;;11.85;10.43;;;;;;;8.79;92.23;102403.16;5244844;28;20029;-66
2023/04/19 04:48:52;;;;;;;13.73;11.63;;;;;;;8.85;91.80;102410.19;5243707;28;20359;-66
2023/04/19 04:51:25;;;;;;;14.40;10.83;;;;;;;8.84;91.79;102411.03;5245239;28;20084;-64
2023/04/19 04:53:56;;;;;;;11.50;10.25;;;;;;;8.83;91.45;102411.91;5245029;28;20045;-65
2023/04/19 04:56:27;;;;;;;12.30;10.60;;;;;;;8.82;91.29;102411.00;5244925;28;20611;-67
2023/04/19 04:58:59;;;;;;;13.63;11.00;;;;;;;8.83;91.20;102420.56;5244762;28;20065;-65
2023/04/19 05:01:30;;;;;;;14.70;10.07;;;;;;;8.80;90.73;102424.84;5244971;28;20030;-65
2023/04/19 05:04:02;;;;;;;11.50;9.50;;;;;;;8.69;90.47;102417.66;5244608;28;20128;-65
2023/04/19 05:06:33;;;;;;;12.23;9.43;;;;;;;8.62;90.61;102415.78;5244897;28;20029;-65
2023/04/19 05:09:04;;;;;;;10.73;9.50;;;;;;;8.53;90.50;102420.78;5244222;28;20022;-65
2023/04/19 05:11:36;;;;;;;11.73;9.23;;;;;;;8.45;90.47;102423.22;5244597;28;20029;-65
2023/04/19 05:14:07;;;;;;;20.17;9.23;;;;;;;8.33;91.01;102418.59;5244741;28;20048;-65
2023/04/19 05:16:39;;;;;;;14.00;9.13;;;;;;;8.28;90.58;102417.63;5244371;28;20034;-65
2023/04/19 05:19:10;;;;;;;13.40;8.67;;;;;;;8.19;90.89;102426.09;5244374;28;20033;-65
2023/04/19 05:21:41;;;;;;;10.10;9.10;;;;;;;8.14;91.51;102425.06;5243992;28;20025;-65
2023/04/19 05:24:13;;;;;;;12.97;8.90;;;;;;;8.09;91.51;102426.69;5244577;28;20040;-65
2023/04/19 05:26:44;;;;;;;12.90;7.90;;;;;;;8.12;90.93;102431.09;5244270;28;20044;-66
2023/04/19 05:29:16;;;;;;;12.57;7.77;;;;;;;8.10;90.70;102430.16;5244657;28;20087;-65
2023/04/19 05:31:47;;;;;;;15.00;8.57;;;;;;;8.11;90.59;102425.00;5244134;28;20492;-66
2023/04/19 05:34:19;;;;;;;12.07;8.47;;;;;;;8.08;90.34;102424.06;5244766;28;20373;-66
2023/04/19 05:36:50;;;;;;;9.57;7.67;;;;;;;8.08;90.20;102422.31;5244622;28;20120;-65
2023/04/19 05:39:22;;;;;;;11.30;8.30;;;;;;;8.05;90.65;102424.88;5242294;28;20049;-66
2023/04/19 05:41:53;;;;;;;11.67;8.57;;;;;;;8.11;90.21;102426.72;5243123;28;20420;-66
2023/04/19 05:44:25;;;;;;;12.20;8.10;;;;;;;8.06;90.74;102431.81;5244166;28;20037;-66
2023/04/19 05:46:56;;;;;;;12.67;8.80;;;;;;;8.09;90.92;102428.41;5243788;28;20030;-66
2023/04/19 05:49:27;;;;;;;11.33;8.87;;;;;;;8.13;90.85;102425.94;5242393;28;20029;-66
2023/04/19 05:51:59;;;;;;;10.77;9.20;;;;;;;8.18;90.93;102428.66;5243929;28;20030;-66
2023/04/19 05:54:34;;;;;;;10.30;9.27;;;;;;;8.12;90.92;102426.75;5243718;28;20044;-66
2023/04/19 05:57:05;;;;;;;11.88;9.48;;;;;;;8.10;90.70;102425.88;5243970;28;20513;-66
2023/04/19 05:59:37;;;;;;;12.00;8.90;;;;;;;8.06;90.88;102428.34;5243429;28;20108;-66
2023/04/19 06:02:08;;;;;;;11.80;8.40;;;;;;;8.03;91.07;102422.25;5243925;28;20044;-66
2023/04/19 06:04:40;;;;;;;14.40;9.47;;;;;;;8.02;91.22;102437.78;5243589;28;20034;-66
2023/04/19 06:07:11;;;;;;;12.40;9.40;;;;;;;7.99;91.19;102435.97;5243674;28;20530;-66
2023/04/19 06:09:43;;;;;;;10.63;9.40;;;;;;;7.99;90.77;102427.31;5243547;28;20030;-66
2023/04/19 06:12:14;;;;;;;10.03;8.57;;;;;;;8.13;90.72;102431.13;5243542;28;20121;-66
2023/04/19 06:14:45;;;;;;;10.10;8.53;;;;;;;8.32;89.28;102429.84;5242659;28;20555;-65
2023/04/19 06:17:22;;;;;;;11.13;9.10;;;;;;;8.56;88.58;102441.66;5242216;28;20084;-66
2023/04/19 06:19:54;;;;;;;11.18;9.48;;;;;;;8.76;86.79;102442.97;5243570;28;20028;-66
2023/04/19 06:22:25;;;;;;;8.47;7.43;;;;;;;9.01;85.43;102440.00;5244180;28;20033;-66
2023/04/19 06:24:56;;;;;;;10.93;8.60;;;;;;;9.13;84.34;102441.13;5243944;28;20276;-66
2023/04/19 06:27:28;;;;;;;12.90;8.00;;;;;;;9.31;83.65;102431.91;5244117;28;20033;-66
2023/04/19 06:29:59;;;;;;;9.40;7.50;;;;;;;9.37;82.96;102438.94;5243466;28;20440;-66
2023/04/19 06:32:31;;;;;;;8.73;7.13;;;;;;;9.33;80.24;102435.41;5243185;28;20033;-66
2023/04/19 06:35:03;;;;;;;9.67;7.23;;;;;;;9.41;79.35;102436.44;5241753;28;20034;-66
2023/04/19 06:37:34;;;;;;;10.18;7.38;;;;;;;9.46;78.36;102434.78;5243246;28;20037;-66
2023/04/19 06:40:07;;;;;;;8.53;6.77;;;;;;;9.54;77.21;102432.34;5243105;28;20088;-66
2023/04/19 06:42:38;;;;;;;12.82;7.05;;;;;;;9.58;75.60;102430.66;5241603;28;20029;-66
2023/04/19 06:45:10;;;;;;;9.70;6.70;;;;;;;9.66;75.38;102426.50;5242814;28;20033;-66
2023/04/19 06:47:42;;;;;;;9.82;6.97;;;;;;;9.72;74.05;102421.34;5242597;28;20546;-66
2023/04/19 06:50:13;;;;;;;9.87;6.87;;;;;;;9.77;73.81;102422.34;5242915;28;20033;-66
2023/04/19 06:52:44;;;;;;;8.37;6.40;;;;;;;9.82;73.43;102422.38;5242922;28;20087;-66
2023/04/19 06:55:16;;;;;;;9.17;6.73;;;;;;;9.76;71.76;102427.53;5242267;28;20087;-66
2023/04/19 06:57:47;;;;;;;8.90;6.63;;;;;;;9.83;72.28;102427.63;5241286;28;20120;-66
2023/04/19 07:00:18;;;;;;;9.90;6.17;;;;;;;9.78;71.31;102420.59;5242468;28;20022;-66
2023/04/19 07:02:50;;;;;;;8.10;6.80;;;;;;;9.89;71.48;102418.19;5241210;28;20473;-66
2023/04/19 07:05:22;;;;;;;10.15;7.10;;;;;;;9.90;68.86;102425.13;5243192;28;20381;-66
2023/04/19 07:07:53;;;;;;;8.97;6.40;;;;;;;9.89;67.57;102416.44;5242872;28;20037;-66
2023/04/19 07:10:25;;;;;;;12.83;7.07;;;;;;;9.95;67.21;102426.97;5242322;28;20061;-66
2023/04/19 07:12:56;;;;;;;7.23;5.40;;;;;;;10.08;66.26;102429.75;5241027;28;20091;-66
2023/04/19 07:15:27;;;;;;;10.27;6.33;;;;;;;10.16;66.57;102433.38;5242534;28;20500;-66
2023/04/19 07:17:59;;;;;;;8.90;6.20;;;;;;;10.23;66.04;102428.25;5240885;28;20041;-66
2023/04/19 07:20:30;;;;;;;9.13;6.77;;;;;;;10.33;65.10;102428.44;5242160;28;20469;-66
2023/04/19 07:23:02;;;;;;;9.60;6.67;;;;;;;10.47;66.50;102424.28;5241728;28;20033;-66
2023/04/19 07:25:33;;;;;;;11.20;5.57;;;;;;;10.52;65.18;102432.19;5242089;28;20120;-66
2023/04/19 07:28:04;;;;;;;7.73;5.77;;;;;;;10.43;63.01;102425.09;5240573;28;20025;-66
2023/04/19 07:30:36;;;;;;;7.17;5.70;;;;;;;10.49;62.56;102432.13;5242082;28;20033;-66
2023/04/19 07:33:07;;;;;;;9.77;6.07;;;;;;;10.56;62.51;102428.75;5242783;28;20052;-66
2023/04/19 07:35:39;;;;;;;9.30;6.20;;;;;;;10.67;61.64;102428.91;5241682;28;20087;-66
2023/04/19 07:38:10;;;;;;;7.43;6.03;;;;;;;10.69;61.98;102417.63;5241897;28;20037;-65
2023/04/19 07:40:42;;;;;;;9.00;5.97;;;;;;;10.85;61.40;102425.66;5241930;28;20140;-66
2023/04/19 07:43:13;;;;;;;10.33;5.73;;;;;;;10.90;59.85;102429.19;5242727;28;20104;-65
2023/04/19 07:45:44;;;;;;;9.23;5.87;;;;;;;11.00;59.67;102428.44;5242094;28;20026;-66
2023/04/19 07:48:16;;;;;;;8.80;5.47;;;;;;;11.11;59.49;102418.16;5240440;28;20125;-66
2023/04/19 07:50:47;;;;;;;15.47;6.13;;;;;;;11.30;59.06;102417.47;5241854;28;20159;-66
2023/04/19 07:53:19;;;;;;;9.07;5.70;;;;;;;11.27;58.15;102417.44;5240752;28;20068;-66
2023/04/19 07:55:51;;;;;;;8.10;5.90;;;;;;;11.41;58.09;102421.91;5241702;28;20087;-66
2023/04/19 07:58:22;;;;;;;8.50;5.50;;;;;;;11.46;57.23;102417.63;5241741;28;20543;-66
2023/04/19 08:00:54;;;;;;;8.40;5.90;;;;;;;11.57;56.51;102421.19;5242148;28;20033;-66
2023/04/19 08:03:25;;;;;;;8.67;5.87;;;;;;;11.64;56.63;102411.69;5242012;28;20034;-66
2023/04/19 08:05:57;;;;;;;8.00;5.23;;;;;;;11.67;56.74;102404.78;5241773;28;20033;-65
2023/04/19 08:08:28;;;;;;;8.43;5.97;;;;;;;11.83;56.58;102412.72;5241551;28;20079;-65
2023/04/19 08:11:01;;;;;;;10.37;5.27;;;;;;;11.87;55.66;102409.28;5242224;28;20119;-64
2023/04/19 08:13:32;;;;;;;;;;;;;;;12.03;57.13;102415.53;5246333;28;20051;-65
2023/04/19 08:16:04;;;;;;;13.02;5.15;;;;;;;12.14;56.00;102408.66;5245497;28;20001;-65
2023/04/19 08:18:35;;;;;;;7.00;5.77;;;;;;;12.17;54.93;102407.78;5245358;28;20079;-65
2023/04/19 08:21:06;;;;;;;18.70;6.60;;;;;;;12.31;55.09;102403.50;5244363;28;20497;-65
2023/04/19 08:23:38;;;;;;;7.83;5.23;;;;;;;12.33;53.45;102403.50;5245566;28;20036;-64
2023/04/19 08:26:09;;;;;;;8.23;5.73;;;;;;;12.40;54.34;102406.19;5245490;28;20355;-65
2023/04/19 08:28:41;;;;;;;11.63;5.83;;;;;;;12.42;53.61;102411.41;5245637;28;20028;-65
2023/04/19 08:31:12;;;;;;;9.73;6.70;;;;;;;12.49;52.71;102407.97;5245345;28;20068;-65
2023/04/19 08:33:44;;;;;;;9.07;5.10;;;;;;;12.62;51.84;102402.78;5245482;28;20057;-65
2023/04/19 08:36:15;;;;;;;7.40;5.23;;;;;;;12.74;51.78;102405.47;5243997;28;20025;-65
2023/04/19 08:38:47;;;;;;;8.97;5.43;;;;;;;12.62;50.71;102403.66;5245653;28;20052;-65
2023/04/19 08:41:22;;;;;;;6.65;5.32;;;;;;;12.82;52.13;102408.13;5245163;28;20361;-65
2023/04/19 08:43:54;;;;;;;15.00;5.40;;;;;;;12.85;49.50;102403.78;5245111;28;20041;-65
2023/04/19 08:46:26;;;;;;;7.78;5.45;;;;;;;12.93;48.60;102398.56;5245030;28;20037;-65
2023/04/19 08:48:59;;;;;;;8.03;5.30;;;;;;;12.97;47.11;102402.06;5245101;28;20373;-65
2023/04/19 08:51:31;;;;;;;8.25;5.72;;;;;;;13.13;48.03;102396.00;5245276;28;20418;-65
2023/04/19 08:54:07;;;;;;;7.45;5.55;;;;;;;13.24;47.24;102403.88;5244839;28;20030;-64
2023/04/19 08:56:39;;;;;;;7.85;5.55;;;;;;;13.13;45.26;102394.25;5243958;28;20079;-65
2023/04/19 08:59:11;;;;;;;16.55;5.30;;;;;;;13.11;45.10;102388.13;5244830;28;20424;-65
2023/04/19 09:01:43;;;;;;;8.90;5.53;;;;;;;13.44;46.54;102391.75;5244460;28;20068;-65
2023/04/19 09:04:14;;;;;;;10.93;5.27;;;;;;;13.41;44.30;102396.06;5243809;28;20065;-65
2023/04/19 09:06:46;;;;;;;15.07;5.67;;;;;;;13.58;45.10;102385.63;5243320;28;20029;-65
2023/04/19 09:09:18;;;;;;;7.10;4.87;;;;;;;13.52;43.99;102388.25;5244485;28;20038;-65
2023/04/19 09:11:50;;;;;;;;;;;;;;;13.78;45.53;102396.97;5244912;28;20026;-66
2023/04/19 09:14:21;;;;;;;5.72;4.03;;;;;;;13.77;43.06;102386.50;5244460;28;19909;-66
2023/04/19 09:16:53;;;;;;;7.17;5.00;;;;;;;13.91;42.80;102396.97;5244305;28;20034;-66
2023/04/19 09:19:25;;;;;;;7.35;3.83;;;;;;;14.18;44.09;102393.44;5243422;28;20026;-65
2023/04/19 09:21:56;;;;;;;9.37;4.10;;;;;;;14.57;43.14;102383.69;5243199;28;20041;-66
2023/04/19 09:24:38;;;;;;;6.87;4.50;;;;;;;15.33;41.96;102386.81;5243965;28;20025;-65
2023/04/19 09:27:11;;;;;;;9.45;4.13;;;;;;;16.49;40.83;102388.41;5245184;28;20021;-66
2023/04/19 09:29:51;;;;;;;;;;;;;;;17.63;40.32;102389.47;5244825;28;20401;-66
2023/04/19 09:32:23;;;;;;;6.43;3.70;;;;;;;17.68;34.90;102388.47;5244474;28;20007;-66
2023/04/19 09:34:57;;;;;;;5.20;3.63;;;;;;;16.97;34.66;102396.59;5244254;28;20030;-67
2023/04/19 09:37:28;;;;;;;7.93;3.90;;;;;;;17.50;33.81;102389.66;5244183;28;20109;-66
2023/04/19 09:40:03;;;;;;;7.00;4.10;;;;;;;17.87;32.42;102393.44;5244321;28;20136;-66
2023/04/19 09:42:45;;;;;;;6.22;3.42;;;;;;;18.37;35.34;102385.47;5242829;28;20128;-66
2023/04/19 09:45:16;;;;;;;6.88;3.50;;;;;;;18.81;33.12;102388.97;5244382;28;20205;-66
2023/04/19 09:48:00;;;;;;;5.27;3.53;;;;;;;19.15;32.79;102382.97;5243978;28;20112;-66
2023/04/19 09:50:32;;;;;;;11.10;4.55;;;;;;;19.25;31.69;102387.13;5244280;28;20034;-66
2023/04/19 09:53:04;;;;;;;9.25;3.80;;;;;;;19.21;30.32;102374.03;5243835;28;20041;-66
2023/04/19 09:55:36;;;;;;;6.00;3.10;;;;;;;19.11;30.81;102379.53;5243791;28;20034;-66
2023/04/19 09:58:07;;;;;;;5.35;3.45;;;;;;;19.47;30.24;102383.97;5243430;28;20079;-66
2023/04/19 10:00:42;;;;;;;8.27;3.87;;;;;;;19.43;29.59;102375.25;5243409;28;20033;-66
2023/04/19 10:03:15;;;;;;;6.93;3.92;;;;;;;19.84;29.85;102375.97;5243238;28;20120;-66
2023/04/19 10:05:47;;;;;;;5.82;3.55;;;;;;;20.31;29.27;102370.28;5243593;28;20064;-66
2023/04/19 10:08:18;;;;;;;4.80;3.13;;;;;;;19.93;28.27;102369.59;5243694;28;20452;-66
2023/04/19 10:10:53;;;;;;;5.93;3.00;;;;;;;19.64;26.50;102387.06;5243962;28;20064;-67
2023/04/19 10:13:26;;;;;;;6.15;3.03;;;;;;;19.74;26.74;102382.41;5244153;28;20369;-66
2023/04/19 10:15:59;;;;;;;5.47;3.45;;;;;;;20.04;27.47;102378.13;5243288;28;20072;-66
2023/04/19 10:18:31;;;;;;;7.40;3.17;;;;;;;20.19;27.65;102365.38;5242892;28;20052;-67
2023/04/19 10:21:07;;;;;;;7.63;3.72;;;;;;;21.00;26.42;102379.78;5243476;28;20501;-66
2023/04/19 10:23:38;;;;;;;6.63;3.53;;;;;;;20.99;26.07;102373.59;5241598;28;20087;-66
2023/04/19 10:26:10;;;;;;;5.37;3.10;;;;;;;20.66;27.12;102364.94;5243077;28;20037;-66
2023/04/19 10:28:41;;;;;;;6.07;3.07;;;;;;;20.97;26.38;102364.84;5243398;28;20026;-66
2023/04/19 10:31:13;;;;;;;3.87;2.77;;;;;;;19.98;27.30;102367.69;5242810;28;20496;-66
2023/04/19 10:33:44;;;;;;;8.07;2.60;;;;;;;20.31;27.09;102358.84;5242692;28;20029;-66
2023/04/19 10:36:16;;;;;;;5.97;2.90;;;;;;;20.68;26.24;102360.44;5241489;28;20068;-67
2023/04/19 10:38:51;;;;;;;6.05;3.22;;;;;;;20.83;24.99;102370.56;5242830;28;20033;-66
2023/04/19 10:41:22;;;;;;;4.43;2.13;;;;;;;21.26;26.22;102363.91;5243408;28;20057;-66
2023/04/19 10:43:53;;;;;;;5.07;2.53;;;;;;;21.23;22.77;102363.13;5241573;28;20102;-66
2023/04/19 10:46:27;;;;;;;5.97;2.20;;;;;;;21.93;22.86;102353.72;5242702;28;20477;-67
2023/04/19 10:49:00;;;;;;;5.95;2.65;;;;;;;22.29;22.77;102366.59;5242902;28;20033;-66
2023/04/19 10:51:34;;;;;;;3.95;2.20;;;;;;;22.53;22.85;102365.69;5241274;28;20034;-66
2023/04/19 10:54:30;;;;;;;2.95;2.05;;;;;;;22.52;22.77;102363.97;5242488;28;20049;-65
2023/04/19 10:57:06;;;;;;;3.40;1.88;;;;;;;22.55;21.49;102363.84;5242461;28;20034;-66
2023/04/19 10:59:39;;;;;;;6.68;1.90;;;;;;;22.57;20.55;102355.81;5241565;28;20045;-66
2023/04/19 11:02:23;;;;;;;6.80;1.90;;;;;;;22.71;21.44;102347.31;5242396;28;20037;-66
2023/04/19 11:04:54;;;;;;;3.63;1.70;;;;;;;23.22;21.90;102343.50;5243215;28;20029;-66
2023/04/19 11:07:26;;;;;;;4.50;1.87;;;;;;;23.46;20.72;102340.75;5242383;28;20029;-65
2023/04/19 11:09:57;;;;;;;4.45;1.80;;;;;;;23.67;19.55;102337.16;5242243;28;20032;-66
2023/04/19 11:12:29;;;;;;;2.87;1.80;;;;;;;23.97;19.35;102349.22;5241352;28;20037;-66
2023/04/19 11:15:01;;;;;;;2.50;1.77;;;;;;;24.21;19.60;102347.25;5242383;28;20495;-66
2023/04/19 11:17:33;;;;;;;3.15;1.92;;;;;;;24.10;19.44;102344.22;5242668;28;20025;-66
2023/04/19 11:20:07;;;;;;;3.47;2.08;;;;;;;25.01;19.03;102346.16;5242109;28;20082;-66
2023/04/19 11:22:40;;;;;;;4.50;1.95;;;;;;;24.49;19.91;102352.19;5242359;28;20040;-67
2023/04/19 11:25:16;;;;;;;5.00;1.90;;;;;;;24.60;18.91;102349.06;5243040;28;20052;-66
2023/04/19 11:27:49;;;;;;;4.43;2.22;;;;;;;23.92;19.44;102348.56;5241901;28;20064;-66
2023/04/19 11:30:27;;;;;;;5.30;2.70;;;;;;;24.19;20.17;102347.31;5242666;28;20461;-65
2023/04/19 11:32:59;;;;;;;8.23;2.55;;;;;;;25.33;20.60;102338.41;5241359;28;20461;-66
2023/04/19 11:35:30;;;;;;;9.23;2.57;;;;;;;25.05;20.80;102333.53;5242189;28;20029;-66
2023/04/19 11:38:04;;;;;;;4.55;2.42;;;;;;;25.16;19.46;102330.34;5242455;28;20290;-66
2023/04/19 11:40:36;;;;;;;7.32;2.70;;;;;;;24.54;19.72;102322.66;5241761;28;20045;-66
2023/04/19 11:43:07;;;;;;;3.05;2.30;;;;;;;25.03;19.79;102328.28;5241639;28;20034;-66